sensor_id;sensor_type;location;lat;lon;timestamp;temperature;humidity
1878;DHT22;939;51.426;6.972;2024-01-11T08:56:53;-1.40;99.90
1878;DHT22;939;51.426;6.972;2024-01-11T08:59:20;-1.30;99.90
1878;DHT22;939;51.426;6.972;2024-01-11T09:01:50;-1.30;99.90
1878;DHT22;939;51.426;6.972;2024-01-11T09:04:17;-1.20;99.90
1878;DHT22;939;51.426;6.972;2024-01-11T09:06:44;-1.10;99.90
1878;DHT22;939;51.426;6.972;2024-01-11T09:09:11;-1.00;99.90
1878;DHT22;939;51.426;6.972;2024-01-11T09:11:39;-1.00;99.90
1878;DHT22;939;51.426;6.972;2024-01-11T09:14:08;-0.90;99.90
1878;DHT22;939;51.426;6.972;2024-01-11T09:16:36;-0.80;99.90
1878;DHT22;939;51.426;6.972;2024-01-11T09:19:05;-0.70;99.90
1878;DHT22;939;51.426;6.972;2024-01-11T09:21:32;-0.70;99.90
1878;DHT22;939;51.426;6.972;2024-01-11T09:23:58;-0.60;99.90
1878;DHT22;939;51.426;6.972;2024-01-11T09:26:25;-0.50;99.90
1878;DHT22;939;51.426;6.972;2024-01-11T09:28:52;-0.50;99.90
1878;DHT22;939;51.426;6.972;2024-01-11T09:31:20;-0.10;99.90
1878;DHT22;939;51.426;6.972;2024-01-11T09:33:47;0.90;99.90
1878;DHT22;939;51.426;6.972;2024-01-11T09:36:15;1.90;99.00
1878;DHT22;939;51.426;6.972;2024-01-11T09:38:42;3.20;96.00
1878;DHT22;939;51.426;6.972;2024-01-11T09:41:10;4.60;93.90
1878;DHT22;939;51.426;6.972;2024-01-11T09:43:38;5.80;89.50
1878;DHT22;939;51.426;6.972;2024-01-11T09:46:07;6.40;84.00
1878;DHT22;939;51.426;6.972;2024-01-11T09:48:38;6.90;77.20
1878;DHT22;939;51.426;6.972;2024-01-11T09:51:08;6.80;71.80
1878;DHT22;939;51.426;6.972;2024-01-11T09:53:38;6.40;66.80
1878;DHT22;939;51.426;6.972;2024-01-11T09:56:07;5.80;66.70
1878;DHT22;939;51.426;6.972;2024-01-11T09:58:35;5.20;67.80
1878;DHT22;939;51.426;6.972;2024-01-11T10:01:04;4.50;68.90
1878;DHT22;939;51.426;6.972;2024-01-11T10:03:34;4.00;71.40
1878;DHT22;939;51.426;6.972;2024-01-11T10:06:02;3.50;73.60
1878;DHT22;939;51.426;6.972;2024-01-11T10:08:31;3.10;75.80
1878;DHT22;939;51.426;6.972;2024-01-11T10:10:59;2.70;78.20
1878;DHT22;939;51.426;6.972;2024-01-11T10:13:28;2.40;80.50
1878;DHT22;939;51.426;6.972;2024-01-11T10:16:05;2.20;82.50
1878;DHT22;939;51.426;6.972;2024-01-11T10:18:33;1.90;83.90
1878;DHT22;939;51.426;6.972;2024-01-11T10:21:02;1.80;85.30
1878;DHT22;939;51.426;6.972;2024-01-11T10:23:29;1.60;86.60
1878;DHT22;939;51.426;6.972;2024-01-11T10:25:57;1.50;87.50
1878;DHT22;939;51.426;6.972;2024-01-11T10:28:25;1.30;88.60
1878;DHT22;939;51.426;6.972;2024-01-11T10:30:54;1.30;90.10
1878;DHT22;939;51.426;6.972;2024-01-11T10:33:22;1.20;90.70
1878;DHT22;939;51.426;6.972;2024-01-11T10:35:52;1.10;91.20
1878;DHT22;939;51.426;6.972;2024-01-11T10:38:22;0.70;92.80
1878;DHT22;939;51.426;6.972;2024-01-11T10:40:49;0.90;92.50
1878;DHT22;939;51.426;6.972;2024-01-11T10:43:21;0.70;93.40
1878;DHT22;939;51.426;6.972;2024-01-11T10:45:48;0.70;93.60
1878;DHT22;939;51.426;6.972;2024-01-11T10:48:21;0.80;92.90
1878;DHT22;939;51.426;6.972;2024-01-11T10:50:51;0.80;92.70
1878;DHT22;939;51.426;6.972;2024-01-11T10:53:33;0.80;92.80
1878;DHT22;939;51.426;6.972;2024-01-11T10:56:05;0.80;92.70
1878;DHT22;939;51.426;6.972;2024-01-11T10:58:33;0.80;91.90
1878;DHT22;939;51.426;6.972;2024-01-11T11:01:02;0.80;92.10
1878;DHT22;939;51.426;6.972;2024-01-11T11:03:30;0.80;92.00
1878;DHT22;939;51.426;6.972;2024-01-11T11:05:58;0.90;91.70
1878;DHT22;939;51.426;6.972;2024-01-11T11:08:27;0.90;91.90
1878;DHT22;939;51.426;6.972;2024-01-11T11:10:55;0.90;91.90
1878;DHT22;939;51.426;6.972;2024-01-11T11:13:23;1.00;92.50
1878;DHT22;939;51.426;6.972;2024-01-11T11:15:50;0.90;92.30
1878;DHT22;939;51.426;6.972;2024-01-11T11:18:18;1.00;92.40
1878;DHT22;939;51.426;6.972;2024-01-11T11:20:46;1.10;91.80
1878;DHT22;939;51.426;6.972;2024-01-11T11:23:15;1.20;91.90
1878;DHT22;939;51.426;6.972;2024-01-11T11:25:47;1.10;92.20
1878;DHT22;939;51.426;6.972;2024-01-11T11:28:16;1.10;92.50
1878;DHT22;939;51.426;6.972;2024-01-11T11:30:44;1.30;91.80
1878;DHT22;939;51.426;6.972;2024-01-11T11:33:16;1.30;91.00
1878;DHT22;939;51.426;6.972;2024-01-11T11:35:43;1.30;90.00
1878;DHT22;939;51.426;6.972;2024-01-11T11:38:17;1.40;90.30
1878;DHT22;939;51.426;6.972;2024-01-11T11:40:48;1.40;90.20
1878;DHT22;939;51.426;6.972;2024-01-11T11:43:16;1.40;89.80
1878;DHT22;939;51.426;6.972;2024-01-11T11:45:45;1.50;89.30
1878;DHT22;939;51.426;6.972;2024-01-11T11:51:14;1.40;90.20
1878;DHT22;939;51.426;6.972;2024-01-11T11:53:42;1.30;89.80
1878;DHT22;939;51.426;6.972;2024-01-11T11:56:10;1.40;90.00
1878;DHT22;939;51.426;6.972;2024-01-11T11:58:38;1.30;91.00
1878;DHT22;939;51.426;6.972;2024-01-11T12:01:05;1.30;91.00
1878;DHT22;939;51.426;6.972;2024-01-11T12:03:33;1.40;90.50
1878;DHT22;939;51.426;6.972;2024-01-11T12:06:03;1.50;90.90
1878;DHT22;939;51.426;6.972;2024-01-11T12:08:31;1.60;90.50
1878;DHT22;939;51.426;6.972;2024-01-11T12:10:58;1.40;91.20
1878;DHT22;939;51.426;6.972;2024-01-11T12:13:26;1.40;91.10
1878;DHT22;939;51.426;6.972;2024-01-11T12:15:53;1.20;92.30
1878;DHT22;939;51.426;6.972;2024-01-11T12:18:21;1.20;91.40
1878;DHT22;939;51.426;6.972;2024-01-11T12:20:47;1.20;91.30
1878;DHT22;939;51.426;6.972;2024-01-11T12:23:15;1.30;92.00
1878;DHT22;939;51.426;6.972;2024-01-11T12:25:42;1.20;92.30
1878;DHT22;939;51.426;6.972;2024-01-11T12:28:09;1.10;92.70
1878;DHT22;939;51.426;6.972;2024-01-11T12:30:38;1.00;92.70
1878;DHT22;939;51.426;6.972;2024-01-11T12:33:05;1.20;92.30
1878;DHT22;939;51.426;6.972;2024-01-11T12:35:33;1.20;92.30
1878;DHT22;939;51.426;6.972;2024-01-11T12:42:06;1.60;91.20
1878;DHT22;939;51.426;6.972;2024-01-11T12:48:11;1.50;91.90
1878;DHT22;939;51.426;6.972;2024-01-11T12:50:42;1.60;91.50
1878;DHT22;939;51.426;6.972;2024-01-11T12:53:15;1.60;91.80
1878;DHT22;939;51.426;6.972;2024-01-11T12:56:12;1.70;90.90
